createdAt,value
2017-09-27T00:01:43.240Z,32.93
2017-09-27T00:04:14.674Z,29.37
2017-09-27T00:06:45.718Z,30.40
2017-09-27T00:09:16.827Z,34.67
2017-09-27T00:11:48.182Z,31.77
2017-09-27T00:14:19.337Z,34.63
2017-09-27T00:16:50.426Z,33.27
2017-09-27T00:19:22.251Z,36.13
2017-09-27T00:22:55.495Z,32.57
2017-09-27T00:25:26.862Z,32.53
2017-09-27T00:27:57.954Z,32.90
2017-09-27T00:30:29.503Z,35.97
2017-09-27T00:33:01.073Z,32.00
2017-09-27T00:35:32.607Z,37.93
2017-09-27T00:38:05.195Z,37.40
2017-09-27T00:40:36.578Z,35.80
2017-09-27T00:43:07.634Z,33.73
2017-09-27T00:45:38.978Z,42.73
2017-09-27T00:48:10.037Z,38.97
2017-09-27T00:50:41.121Z,35.70
2017-09-27T00:53:12.475Z,37.50
2017-09-27T00:55:43.611Z,34.33
2017-09-27T00:58:14.750Z,35.67
2017-09-27T01:00:45.838Z,36.07
2017-09-27T01:03:17.371Z,38.33
2017-09-27T01:05:48.447Z,37.17
2017-09-27T01:08:20.010Z,41.30
2017-09-27T01:10:51.139Z,34.70
2017-09-27T01:13:22.222Z,40.03
2017-09-27T01:15:53.607Z,38.67
2017-09-27T01:18:24.679Z,36.63
2017-09-27T01:20:55.796Z,37.27
2017-09-27T01:23:27.170Z,33.27
2017-09-27T01:25:58.313Z,39.17
2017-09-27T01:28:29.971Z,37.50
2017-09-27T01:31:01.884Z,36.83
2017-09-27T01:33:34.095Z,36.30
2017-09-27T01:36:05.820Z,37.33
2017-09-27T01:38:36.942Z,34.97
2017-09-27T01:41:08.048Z,43.63
2017-09-27T01:43:39.749Z,35.60
2017-09-27T01:46:10.848Z,41.97
2017-09-27T01:48:42.258Z,35.67
2017-09-27T01:51:13.358Z,41.83
2017-09-27T01:53:44.495Z,46.20
2017-09-27T01:56:15.937Z,38.53
2017-09-27T01:58:47.037Z,39.27
2017-09-27T02:01:18.173Z,40.70
2017-09-27T02:03:49.572Z,43.60
2017-09-27T02:06:20.679Z,44.00
2017-09-27T02:08:52.036Z,44.00
2017-09-27T02:11:23.125Z,41.10
2017-09-27T02:13:54.164Z,37.13
2017-09-27T02:16:25.707Z,42.80
2017-09-27T02:18:56.749Z,37.10
2017-09-27T02:21:27.981Z,41.43
2017-09-27T02:23:59.380Z,36.00
2017-09-27T02:26:31.346Z,47.63
2017-09-27T02:29:02.462Z,45.47
2017-09-27T02:31:34.980Z,77.43
2017-09-27T02:34:06.202Z,135.90
2017-09-27T02:36:37.584Z,42.33
2017-09-27T02:39:08.668Z,46.53
2017-09-27T02:41:40.045Z,35.53
2017-09-27T02:44:11.408Z,40.20
2017-09-27T02:46:42.537Z,39.03
2017-09-27T02:49:13.639Z,35.23
2017-09-27T02:51:44.968Z,35.63
2017-09-27T02:54:16.050Z,41.10
2017-09-27T02:56:47.345Z,42.33
2017-09-27T02:59:18.418Z,39.97
2017-09-27T03:01:49.467Z,41.43
2017-09-27T03:04:20.811Z,35.13
2017-09-27T03:06:51.916Z,37.70
2017-09-27T03:09:22.994Z,32.80
2017-09-27T03:11:54.331Z,32.37
2017-09-27T03:14:25.634Z,42.77
2017-09-27T03:16:56.712Z,44.93
2017-09-27T03:19:28.102Z,41.10
2017-09-27T03:21:59.185Z,36.20
2017-09-27T03:24:30.660Z,38.40
2017-09-27T03:27:01.889Z,34.47
2017-09-27T03:29:34.243Z,38.20
2017-09-27T03:32:06.051Z,37.77
2017-09-27T03:34:37.121Z,36.43
2017-09-27T03:37:08.186Z,31.73
2017-09-27T03:39:39.518Z,30.70
2017-09-27T03:42:10.642Z,35.23
2017-09-27T03:44:41.961Z,33.90
2017-09-27T03:47:13.062Z,38.40
2017-09-27T03:49:44.148Z,39.40
2017-09-27T03:52:15.501Z,42.60
2017-09-27T03:54:46.562Z,41.07
2017-09-27T03:57:17.660Z,46.60
2017-09-27T03:59:49.093Z,42.63
2017-09-27T04:02:20.134Z,51.60
2017-09-27T04:04:51.217Z,41.83
2017-09-27T04:07:22.571Z,43.03
2017-09-27T04:09:53.637Z,44.53
2017-09-27T04:12:25.000Z,44.70
2017-09-27T04:14:56.064Z,43.13
2017-09-27T04:17:29.258Z,47.10
2017-09-27T04:20:00.837Z,44.23
2017-09-27T04:22:34.531Z,44.03
2017-09-27T04:25:05.913Z,40.70
2017-09-27T04:27:37.344Z,45.10
2017-09-27T04:30:08.418Z,46.53
2017-09-27T04:32:39.751Z,47.53
2017-09-27T04:35:10.834Z,49.50
2017-09-27T04:37:42.223Z,43.07
2017-09-27T04:40:14.726Z,51.00
2017-09-27T04:42:45.818Z,48.23
2017-09-27T04:45:17.236Z,50.23
2017-09-27T04:47:48.340Z,50.40
2017-09-27T04:50:19.471Z,47.77
2017-09-27T04:52:50.815Z,52.00
2017-09-27T04:55:21.895Z,42.03
2017-09-27T04:57:52.944Z,41.83
2017-09-27T05:00:24.339Z,48.77
2017-09-27T05:02:55.491Z,44.73
2017-09-27T05:05:26.671Z,47.90
2017-09-27T05:07:58.045Z,42.73
2017-09-27T05:10:30.161Z,50.57
2017-09-27T05:13:01.923Z,49.27
2017-09-27T05:15:34.073Z,53.63
2017-09-27T05:18:06.148Z,56.77
2017-09-27T05:20:37.589Z,51.93
2017-09-27T05:23:08.722Z,59.13
2017-09-27T05:25:39.849Z,47.73
2017-09-27T05:28:11.462Z,54.17
2017-09-27T05:30:45.874Z,65.63
2017-09-27T05:33:21.455Z,58.97
2017-09-27T05:35:54.147Z,45.37
2017-09-27T05:38:25.206Z,52.00
2017-09-27T05:40:56.313Z,49.27
2017-09-27T05:43:27.721Z,47.87
2017-09-27T05:45:58.871Z,47.47
2017-09-27T05:48:36.090Z,50.90
2017-09-27T05:51:10.607Z,54.73
2017-09-27T05:53:42.239Z,57.30
2017-09-27T05:56:13.371Z,56.03
2017-09-27T05:58:48.652Z,48.73
2017-09-27T06:01:19.804Z,54.67
2017-09-27T06:03:51.528Z,51.73
2017-09-27T06:06:23.415Z,42.67
2017-09-27T06:08:54.535Z,42.50
2017-09-27T06:11:25.937Z,44.97
2017-09-27T06:13:57.664Z,45.37
2017-09-27T06:16:29.056Z,41.97
2017-09-27T06:19:00.253Z,43.43
2017-09-27T06:21:33.258Z,38.73
2017-09-27T06:24:06.008Z,36.10
2017-09-27T06:26:37.429Z,37.50
2017-09-27T06:29:10.127Z,46.13
2017-09-27T06:31:41.772Z,35.83
2017-09-27T06:34:12.840Z,40.33
2017-09-27T06:36:44.248Z,38.33
2017-09-27T06:39:15.363Z,40.53
2017-09-27T06:41:46.601Z,42.43
2017-09-27T06:44:18.053Z,41.33
2017-09-27T06:46:49.184Z,42.03
2017-09-27T06:49:20.615Z,43.50
2017-09-27T06:51:51.728Z,38.43
2017-09-27T06:54:22.865Z,51.90
2017-09-27T06:56:54.211Z,47.90
2017-09-27T06:59:25.344Z,42.20
2017-09-27T07:01:56.743Z,33.07
2017-09-27T07:04:27.896Z,37.37
2017-09-27T07:06:59.020Z,41.80
2017-09-27T07:09:31.423Z,38.10
2017-09-27T07:12:03.856Z,36.30
2017-09-27T07:14:36.610Z,41.27
2017-09-27T07:17:07.756Z,38.63
2017-09-27T07:19:39.046Z,36.93
2017-09-27T07:22:10.442Z,40.83
2017-09-27T07:24:41.610Z,36.53
2017-09-27T07:27:12.904Z,37.00
2017-09-27T07:29:44.454Z,38.77
2017-09-27T07:32:15.737Z,44.20
2017-09-27T07:34:46.940Z,35.53
2017-09-27T07:37:18.439Z,40.77
2017-09-27T07:39:49.789Z,44.50
2017-09-27T07:42:20.931Z,42.97
2017-09-27T07:44:52.414Z,50.47
2017-09-27T07:47:23.559Z,51.07
2017-09-27T07:49:55.047Z,56.93
2017-09-27T07:52:26.218Z,54.40
2017-09-27T07:54:57.341Z,48.20
2017-09-27T07:57:28.759Z,49.37
2017-09-27T08:00:00.412Z,58.40
2017-09-27T08:02:34.776Z,60.13
2017-09-27T08:05:05.963Z,52.83
2017-09-27T08:07:37.460Z,55.17
2017-09-27T08:10:09.465Z,65.77
2017-09-27T08:12:42.568Z,54.97
2017-09-27T08:15:14.017Z,54.40
2017-09-27T08:17:45.392Z,61.27
2017-09-27T08:20:16.543Z,51.37
2017-09-27T08:22:47.985Z,46.83
2017-09-27T08:25:20.080Z,49.17
2017-09-27T08:27:51.209Z,53.97
2017-09-27T08:30:23.051Z,45.40
2017-09-27T08:32:56.151Z,44.60
2017-09-27T08:35:29.873Z,44.73
2017-09-27T08:38:04.272Z,44.13
2017-09-27T08:40:37.238Z,47.33
2017-09-27T08:43:08.505Z,47.83
2017-09-27T08:45:40.023Z,37.13
2017-09-27T08:48:11.097Z,37.10
2017-09-27T08:50:42.415Z,46.90
2017-09-27T08:53:13.507Z,40.37
2017-09-27T08:55:44.548Z,41.03
2017-09-27T08:58:15.578Z,42.60
2017-09-27T09:00:46.664Z,42.40
2017-09-27T09:03:18.126Z,42.80
2017-09-27T09:05:49.431Z,37.00
2017-09-27T09:08:20.502Z,43.93
2017-09-27T09:10:51.990Z,47.23
2017-09-27T09:13:23.047Z,48.77
2017-09-27T09:15:54.385Z,43.77
2017-09-27T09:18:25.455Z,42.70
2017-09-27T09:20:56.838Z,48.90
2017-09-27T09:23:28.192Z,51.60
2017-09-27T09:25:59.226Z,47.30
2017-09-27T09:28:30.947Z,74.30
2017-09-27T09:31:02.853Z,45.70
2017-09-27T09:33:36.352Z,46.57
2017-09-27T09:36:07.795Z,41.03
2017-09-27T09:38:38.904Z,36.60
2017-09-27T09:41:10.063Z,44.23
2017-09-27T09:43:41.326Z,35.10
2017-09-27T09:46:12.417Z,36.70
2017-09-27T09:48:43.757Z,37.73
2017-09-27T09:51:14.844Z,39.43
2017-09-27T09:53:47.411Z,40.70
2017-09-27T09:56:20.033Z,41.13
2017-09-27T09:58:51.476Z,63.00
2017-09-27T10:01:22.539Z,45.67
2017-09-27T10:03:53.719Z,48.63
2017-09-27T10:06:25.082Z,44.40
2017-09-27T10:08:56.137Z,48.10
2017-09-27T10:11:27.298Z,49.67
2017-09-27T10:13:58.818Z,57.13
2017-09-27T10:16:31.720Z,39.27
2017-09-27T10:19:03.101Z,40.33
2017-09-27T10:21:35.551Z,36.27
2017-09-27T10:24:06.673Z,37.77
2017-09-27T10:26:38.280Z,36.27
2017-09-27T10:29:09.747Z,38.13
2017-09-27T10:31:40.920Z,34.17
2017-09-27T10:34:12.559Z,31.40
2017-09-27T10:36:43.682Z,28.47
2017-09-27T10:39:14.973Z,28.23
2017-09-27T10:41:46.757Z,26.93
2017-09-27T10:44:17.905Z,23.87
2017-09-27T10:46:49.361Z,27.27
2017-09-27T10:49:20.817Z,26.33
2017-09-27T10:51:51.893Z,30.60
2017-09-27T10:54:23.636Z,23.05
2017-09-27T10:56:54.729Z,25.95
2017-09-27T10:59:25.865Z,21.35
2017-09-27T11:01:57.274Z,24.40
2017-09-27T11:04:28.383Z,22.23
2017-09-27T11:06:59.612Z,21.60
2017-09-27T11:09:33.634Z,21.12
2017-09-27T11:12:05.952Z,20.12
2017-09-27T11:14:39.239Z,21.67
2017-09-27T11:17:10.297Z,22.62
2017-09-27T11:19:42.096Z,18.60
2017-09-27T11:22:13.746Z,21.12
2017-09-27T11:24:44.785Z,21.83
2017-09-27T11:27:16.423Z,21.37
2017-09-27T11:29:47.507Z,18.48
2017-09-27T11:32:18.668Z,17.87
2017-09-27T11:34:50.083Z,19.73
2017-09-27T11:37:21.187Z,21.55
2017-09-27T11:39:52.291Z,20.65
2017-09-27T11:42:23.704Z,19.02
2017-09-27T11:44:55.136Z,17.75
2017-09-27T11:47:26.217Z,17.52
2017-09-27T11:49:57.567Z,24.08
2017-09-27T11:52:28.842Z,17.25
2017-09-27T11:55:00.267Z,21.15
2017-09-27T11:57:32.093Z,19.73
2017-09-27T12:00:04.858Z,17.62
2017-09-27T12:02:36.932Z,15.60
2017-09-27T12:05:08.115Z,29.10
2017-09-27T12:07:39.449Z,16.05
2017-09-27T12:10:10.592Z,18.77
2017-09-27T12:12:41.689Z,16.15
2017-09-27T12:15:13.287Z,14.40
2017-09-27T12:17:45.095Z,15.98
2017-09-27T12:20:17.888Z,15.55
2017-09-27T12:22:49.327Z,20.23
2017-09-27T12:25:20.720Z,14.40
2017-09-27T12:27:56.583Z,11.98
2017-09-27T12:33:38.300Z,12.52
2017-09-27T12:36:12.589Z,9.27
2017-09-27T12:38:58.592Z,10.40
2017-09-27T12:41:33.109Z,11.40
2017-09-27T12:44:11.220Z,13.25
2017-09-27T12:46:48.616Z,10.45
2017-09-27T12:51:31.606Z,10.93
2017-09-27T12:54:11.228Z,17.27
2017-09-27T12:56:47.780Z,19.80
2017-09-27T12:59:30.017Z,10.00
2017-09-27T13:02:07.650Z,9.60
2017-09-27T13:04:46.756Z,9.40
2017-09-27T13:07:35.373Z,10.63
2017-09-27T13:10:10.929Z,11.02
2017-09-27T13:12:48.295Z,10.10
2017-09-27T13:15:19.404Z,11.10
2017-09-27T13:17:50.508Z,9.00
2017-09-27T13:20:21.705Z,9.70
2017-09-27T13:22:52.902Z,11.55
2017-09-27T13:25:23.979Z,7.97
2017-09-27T13:27:55.980Z,14.52
2017-09-27T13:30:27.301Z,6.90
2017-09-27T13:32:58.667Z,8.35
2017-09-27T13:35:29.783Z,9.98
2017-09-27T13:38:01.817Z,6.50
2017-09-27T13:40:35.864Z,4.90
2017-09-27T13:43:10.353Z,5.72
2017-09-27T13:45:45.562Z,6.35
2017-09-27T13:48:19.388Z,5.50
2017-09-27T13:50:54.469Z,7.75
2017-09-27T13:53:28.871Z,6.10
2017-09-27T13:56:04.103Z,6.82
2017-09-27T13:58:38.861Z,5.00
2017-09-27T14:01:12.455Z,5.12
2017-09-27T14:03:48.484Z,5.78
2017-09-27T14:06:22.164Z,4.80
2017-09-27T14:08:56.074Z,5.15
2017-09-27T14:11:31.313Z,7.40
2017-09-27T14:14:04.516Z,5.80
2017-09-27T14:16:35.554Z,6.15
2017-09-27T14:19:10.159Z,4.80
2017-09-27T14:24:47.256Z,4.22
2017-09-27T14:27:19.399Z,4.93
2017-09-27T14:29:51.861Z,4.53
2017-09-27T14:32:25.251Z,3.95
2017-09-27T14:34:56.349Z,4.40
2017-09-27T14:37:27.446Z,4.30
2017-09-27T14:39:58.535Z,7.78
2017-09-27T14:42:29.943Z,4.35
2017-09-27T14:45:01.295Z,4.15
2017-09-27T14:47:32.476Z,3.92
2017-09-27T14:50:07.622Z,4.47
2017-09-27T14:52:38.739Z,3.90
2017-09-27T14:55:10.131Z,5.37
2017-09-27T14:57:41.223Z,4.65
2017-09-27T15:00:12.852Z,3.33
2017-09-27T15:02:43.995Z,3.00
2017-09-27T15:05:15.992Z,3.47
2017-09-27T15:07:48.282Z,4.78
2017-09-27T15:10:23.024Z,5.37
2017-09-27T15:12:56.907Z,3.72
2017-09-27T15:15:29.749Z,2.62
2017-09-27T15:18:02.393Z,6.90
2017-09-27T15:20:33.907Z,5.82
2017-09-27T15:23:06.932Z,3.12
2017-09-27T15:25:39.804Z,4.43
2017-09-27T15:28:11.480Z,2.65
2017-09-27T15:30:42.783Z,11.15
2017-09-27T15:33:15.476Z,4.22
2017-09-27T15:35:47.334Z,3.58
2017-09-27T15:38:19.986Z,4.40
2017-09-27T15:40:52.991Z,7.97
2017-09-27T15:46:30.466Z,4.28
2017-09-27T15:49:02.568Z,4.18
2017-09-27T15:51:36.981Z,4.22
2017-09-27T15:54:10.092Z,4.25
2017-09-27T15:56:43.955Z,4.70
2017-09-27T15:59:18.874Z,3.87
2017-09-27T16:01:51.425Z,4.27
2017-09-27T16:04:26.742Z,3.50
2017-09-27T16:07:09.570Z,3.40
2017-09-27T16:09:40.874Z,4.27
2017-09-27T16:12:12.247Z,3.40
2017-09-27T16:14:43.364Z,4.43
2017-09-27T16:17:14.870Z,7.57
2017-09-27T16:19:45.957Z,6.93
2017-09-27T16:22:17.756Z,4.00
2017-09-27T16:24:48.849Z,5.10
2017-09-27T16:27:21.620Z,4.50
2017-09-27T16:29:52.733Z,12.90
2017-09-27T16:32:26.310Z,5.17
2017-09-27T16:34:57.404Z,4.83
2017-09-27T16:37:31.108Z,10.13
2017-09-27T16:40:04.443Z,6.40
2017-09-27T16:42:35.522Z,6.73
2017-09-27T16:45:10.283Z,5.93
2017-09-27T16:47:41.748Z,8.03
2017-09-27T16:50:19.460Z,6.30
2017-09-27T16:52:50.618Z,10.60
2017-09-27T16:55:22.939Z,8.50
2017-09-27T16:57:54.468Z,7.00
2017-09-27T17:00:27.898Z,6.50
2017-09-27T17:03:09.015Z,7.10
2017-09-27T17:05:42.917Z,7.70
2017-09-27T17:08:15.000Z,11.23
2017-09-27T17:10:47.515Z,9.37
2017-09-27T17:13:18.773Z,12.77
2017-09-27T17:15:51.126Z,10.17
2017-09-27T17:18:22.891Z,8.93
2017-09-27T17:20:54.446Z,11.73
2017-09-27T17:23:25.918Z,15.07
2017-09-27T17:25:58.514Z,21.90
2017-09-27T17:28:38.353Z,11.53
2017-09-27T17:31:11.183Z,22.63
2017-09-27T17:33:43.165Z,32.47
2017-09-27T17:36:14.635Z,25.17
2017-09-27T17:38:46.107Z,22.47
2017-09-27T17:41:17.846Z,13.27
2017-09-27T17:43:49.986Z,15.20
2017-09-27T17:46:21.670Z,20.47
2017-09-27T17:51:52.212Z,13.63
2017-09-27T17:54:28.291Z,17.07
2017-09-27T17:57:00.040Z,12.33
2017-09-27T17:59:33.139Z,13.20
2017-09-27T18:02:11.904Z,22.17
2017-09-27T18:04:47.242Z,22.30
2017-09-27T18:07:22.272Z,19.00
2017-09-27T18:09:57.235Z,14.20
2017-09-27T18:12:36.759Z,12.40
2017-09-27T18:15:10.547Z,18.13
2017-09-27T18:17:45.074Z,14.90
2017-09-27T18:20:17.405Z,15.50
2017-09-27T18:22:49.994Z,16.00
2017-09-27T18:25:23.359Z,21.63
2017-09-27T18:27:54.817Z,19.87
2017-09-27T18:30:28.291Z,17.60
2017-09-27T18:32:59.731Z,19.53
2017-09-27T18:35:32.361Z,20.77
2017-09-27T18:38:10.242Z,17.87
2017-09-27T18:40:42.757Z,20.43
2017-09-27T18:43:17.221Z,22.37
2017-09-27T18:45:48.576Z,22.90
2017-09-27T18:48:26.589Z,21.10
2017-09-27T18:51:01.654Z,16.33
2017-09-27T18:53:33.191Z,18.93
2017-09-27T18:56:07.028Z,24.10
2017-09-27T18:58:38.898Z,23.30
2017-09-27T19:01:11.364Z,35.03
2017-09-27T19:06:50.777Z,19.57
2017-09-27T19:09:21.861Z,22.83
2017-09-27T19:11:53.604Z,24.23
2017-09-27T19:14:24.747Z,24.83
2017-09-27T19:16:55.822Z,20.80
2017-09-27T19:19:27.122Z,24.13
2017-09-27T19:21:58.540Z,23.73
2017-09-27T19:24:29.967Z,25.87
2017-09-27T19:27:01.316Z,21.27
2017-09-27T19:29:33.964Z,27.90
2017-09-27T19:32:06.203Z,20.27
2017-09-27T19:34:37.365Z,24.93
2017-09-27T19:37:08.748Z,28.33
2017-09-27T19:39:40.410Z,37.10
2017-09-27T19:42:12.004Z,33.20
2017-09-27T19:44:43.076Z,40.03
2017-09-27T19:47:14.957Z,30.60
2017-09-27T19:49:46.065Z,29.13
2017-09-27T19:52:17.180Z,29.73
2017-09-27T19:54:48.703Z,27.57
2017-09-27T19:57:20.624Z,35.37
2017-09-27T19:59:51.894Z,33.13
2017-09-27T20:02:23.064Z,27.70
2017-09-27T20:04:54.127Z,23.90
2017-09-27T20:07:25.710Z,27.97
2017-09-27T20:09:56.799Z,27.67
2017-09-27T20:12:27.881Z,71.47
2017-09-27T20:15:02.398Z,63.83
2017-09-27T20:17:34.902Z,37.87
2017-09-27T20:20:06.064Z,38.70
2017-09-27T20:22:37.745Z,40.60
2017-09-27T20:25:08.925Z,40.90
2017-09-27T20:27:40.201Z,39.37
2017-09-27T20:30:11.305Z,31.97
2017-09-27T20:32:42.701Z,27.50
2017-09-27T20:35:13.900Z,20.57
2017-09-27T20:37:45.049Z,22.43
2017-09-27T20:40:16.429Z,18.90
2017-09-27T20:42:47.640Z,18.60
2017-09-27T20:45:19.689Z,23.20
2017-09-27T20:47:51.054Z,21.13
2017-09-27T20:50:22.107Z,20.27
2017-09-27T20:52:53.185Z,19.63
2017-09-27T20:55:24.592Z,18.70
2017-09-27T20:57:56.050Z,17.57
2017-09-27T21:00:27.176Z,22.20
2017-09-27T21:02:58.853Z,20.67
2017-09-27T21:05:30.116Z,18.30
2017-09-27T21:08:02.128Z,20.50
2017-09-27T21:10:35.067Z,26.63
2017-09-27T21:13:06.634Z,19.43
2017-09-27T21:15:37.806Z,21.13
2017-09-27T21:18:09.509Z,20.20
2017-09-27T21:20:40.576Z,24.93
2017-09-27T21:23:11.670Z,24.40
2017-09-27T21:25:43.148Z,17.10
2017-09-27T21:28:14.417Z,18.50
2017-09-27T21:30:45.444Z,18.67
2017-09-27T21:33:16.528Z,22.63
2017-09-27T21:35:47.576Z,22.93
2017-09-27T21:38:18.874Z,22.13
2017-09-27T21:40:50.373Z,21.43
2017-09-27T21:43:21.684Z,17.33
2017-09-27T21:45:52.805Z,16.73
2017-09-27T21:48:24.969Z,19.57
2017-09-27T21:50:56.173Z,20.33
2017-09-27T21:53:27.250Z,20.40
2017-09-27T21:55:58.390Z,22.80
2017-09-27T21:58:29.420Z,20.73
2017-09-27T22:01:00.480Z,19.30
2017-09-27T22:03:32.984Z,20.93
2017-09-27T22:06:05.057Z,24.97
2017-09-27T22:08:36.392Z,20.43
2017-09-27T22:11:07.488Z,17.27
2017-09-27T22:13:39.234Z,19.77
2017-09-27T22:16:10.351Z,25.80
2017-09-27T22:18:41.625Z,20.67
2017-09-27T22:21:12.835Z,20.37
2017-09-27T22:23:44.002Z,19.13
2017-09-27T22:26:15.188Z,27.90
2017-09-27T22:28:46.916Z,22.13
2017-09-27T22:31:18.029Z,20.47
2017-09-27T22:33:49.480Z,24.13
2017-09-27T22:36:20.632Z,20.63
2017-09-27T22:38:51.932Z,19.03
2017-09-27T22:41:23.033Z,22.90
2017-09-27T22:43:54.736Z,17.90
2017-09-27T22:46:25.845Z,26.77
2017-09-27T22:48:57.109Z,32.00
2017-09-27T22:51:28.213Z,18.63
2017-09-27T22:53:59.441Z,23.37
2017-09-27T22:56:32.243Z,19.20
2017-09-27T22:59:03.786Z,24.83
2017-09-27T23:01:35.934Z,21.63
2017-09-27T23:04:07.361Z,23.27
2017-09-27T23:06:38.482Z,19.97
2017-09-27T23:09:09.639Z,25.23
2017-09-27T23:11:41.100Z,246.67
2017-09-27T23:14:12.365Z,43.97
2017-09-27T23:16:43.507Z,26.90
2017-09-27T23:19:15.059Z,31.80
2017-09-27T23:21:46.175Z,31.23
2017-09-27T23:24:17.364Z,28.97
2017-09-27T23:26:48.454Z,26.53
2017-09-27T23:29:20.417Z,26.30
2017-09-27T23:31:51.522Z,25.50
2017-09-27T23:34:22.633Z,29.30
2017-09-27T23:36:53.741Z,30.43
2017-09-27T23:39:25.004Z,27.97
2017-09-27T23:41:56.445Z,26.57
2017-09-27T23:44:27.823Z,31.03
2017-09-27T23:46:58.942Z,29.77
2017-09-27T23:49:30.423Z,36.33
2017-09-27T23:52:02.409Z,29.83
2017-09-27T23:54:36.499Z,32.10
2017-09-27T23:57:07.714Z,34.40
2017-09-27T23:59:39.145Z,32.37
